Lockwood, MO (65682)

3:27 PM CDT on August 27, 2014 (GMT -0500)
Greenfield West (WOHSN) | Change Station
CLOSE
Current Station
Personal Weather Station
Location: Greenfield, MO
Elevation: 1066 ft
Nearby Weather Stations
Active Advisory: Heat Advisory Active Notice: Public Information Statement

Elev 1066 ft 37.42 °N, 93.85 °W | Updated 14 minutes ago

Mostly Cloudy
Mostly Cloudy
93.9 °F
Feels Like 102 °F
N
5.3
Wind Variable Wind from NNW

Today
High -- | Low -- °F
--% Chance of Precip.
Yesterday
High -- | Low -- °F
Precip. -- in
6:42 AM 7:51 PM
Waxing Crescent, 5% visible
Pressure 30.02 in
Visibility 10.0 miles
Clouds Clear
Heat Index 102 °F
Dew Point 72 °F
Humidity 49%
Rainfall 0.00 in
Snow Depth Not available.
UV 9 out of 12
Pollen 10.90 out of 12
Air Quality Not available.
Flu Activity Not available.
METAR KSGF 271952Z VRB04KT 10SM CLR 35/17 A3006 RMK AO2 LTG DSNT N AND NE SLP164 T03500167

More Conditions Fewer Conditions

Pressure 30.02 in
Visibility 10.0 miles
Clouds Clear
Heat Index 102 °F
Dew Point 72 °F
Humidity 49%
Rainfall 0.00 in
Snow Depth Not available.
UV 9 out of 12
Pollen 10.90 out of 12
Air Quality Not available.
Flu Activity Not available.
METAR KSGF 271952Z VRB04KT 10SM CLR 35/17 A3006 RMK AO2 LTG DSNT N AND NE SLP164 T03500167

More Conditions Fewer Conditions

10-Day Weather Forecast

Almanac

Astronomy

Aug. 27, 2014 Rise Set
Actual Time 6:42 AM CDT 7:51 PM CDT
Civil Twilight 6:15 AM CDT 8:18 PM CDT
Nautical Twilight 5:42 AM CDT 8:50 PM CDT
Astronomical Twilight 5:09 AM CDT 9:24 PM CDT
Moon 8:35 AM CDT 8:48 PM CDT
Length of Visible Light 14h 03m
Length of Day
13h 09m
Tomorrow will be 2m 16s shorter.
Waxing Crescent, 5% of the Moon is Illuminated
Today
Waxing Crescent
Sep 2
First Quarter
Sep 8
Full
Sep 15
Last Quarter
Sep 24
New

Today's Extremes

State Highs State Lows

Community

WunderPhotos

Upload Photos

1,747,781 photos uploaded!

Nearby

Snow Depth

Station Depth Elevation
No new snow has been reported.

Earthquake Activity

City Distance Mag. Time & Date
No recent earthquake activity has been reported nearby.
Minimum magnitude displayed is 2.5.

Coastal Water Temperatures

Place Temperature
No Stations Reporting

Nearby Weather Stations